sensor_id;sensor_type;location;lat;lon;timestamp;pressure;altitude;pressure_sealevel;temperature;humidity
7662;BME280;30314;48.184;11.510;2023-08-30T00:00:56;95342.50;;;12.20;100.00
7662;BME280;30314;48.184;11.510;2023-08-30T00:03:23;95338.47;;;12.14;100.00
7662;BME280;30314;48.184;11.510;2023-08-30T00:05:50;95338.47;;;12.14;100.00
7662;BME280;30314;48.184;11.510;2023-08-30T00:08:17;95341.88;;;12.14;100.00
7662;BME280;30314;48.184;11.510;2023-08-30T00:10:48;95320.97;;;12.04;100.00
7662;BME280;30314;48.184;11.510;2023-08-30T00:13:15;95335.19;;;12.08;100.00
7662;BME280;30314;48.184;11.510;2023-08-30T00:15:41;95333.28;;;12.08;100.00
7662;BME280;30314;48.184;11.510;2023-08-30T00:18:08;95331.00;;;12.16;100.00
7662;BME280;30314;48.184;11.510;2023-08-30T00:20:35;95330.19;;;12.06;100.00
7662;BME280;30314;48.184;11.510;2023-08-30T00:23:01;95332.84;;;12.06;100.00
7662;BME280;30314;48.184;11.510;2023-08-30T00:25:28;95330.81;;;12.03;100.00
7662;BME280;30314;48.184;11.510;2023-08-30T00:27:55;95336.28;;;12.07;100.00
7662;BME280;30314;48.184;11.510;2023-08-30T00:30:21;95338.13;;;12.06;100.00
7662;BME280;30314;48.184;11.510;2023-08-30T00:32:48;95336.41;;;12.10;100.00
7662;BME280;30314;48.184;11.510;2023-08-30T00:35:14;95338.59;;;12.08;100.00
7662;BME280;30314;48.184;11.510;2023-08-30T00:37:41;95323.50;;;12.00;100.00
7662;BME280;30314;48.184;11.510;2023-08-30T00:40:08;95322.22;;;11.97;100.00
7662;BME280;30314;48.184;11.510;2023-08-30T00:42:36;95335.47;;;12.06;100.00
7662;BME280;30314;48.184;11.510;2023-08-30T00:45:05;95321.13;;;11.98;100.00
7662;BME280;30314;48.184;11.510;2023-08-30T00:47:32;95328.63;;;12.05;100.00
7662;BME280;30314;48.184;11.510;2023-08-30T00:50:00;95336.41;;;12.02;100.00
7662;BME280;30314;48.184;11.510;2023-08-30T00:52:27;95332.66;;;12.03;100.00
7662;BME280;30314;48.184;11.510;2023-08-30T00:54:54;95330.97;;;11.98;100.00
7662;BME280;30314;48.184;11.510;2023-08-30T00:57:21;95323.97;;;12.02;100.00
7662;BME280;30314;48.184;11.510;2023-08-30T00:59:50;95322.69;;;12.00;100.00
7662;BME280;30314;48.184;11.510;2023-08-30T01:02:17;95321.31;;;12.02;100.00
7662;BME280;30314;48.184;11.510;2023-08-30T01:04:45;95321.47;;;12.06;100.00
7662;BME280;30314;48.184;11.510;2023-08-30T01:07:12;95326.28;;;12.04;100.00
7662;BME280;30314;48.184;11.510;2023-08-30T01:09:38;95318.78;;;11.97;100.00
7662;BME280;30314;48.184;11.510;2023-08-30T01:12:40;95339.22;;;12.05;100.00
7662;BME280;30314;48.184;11.510;2023-08-30T01:15:12;95336.09;;;12.03;100.00
7662;BME280;30314;48.184;11.510;2023-08-30T01:17:42;95330.81;;;12.03;100.00
7662;BME280;30314;48.184;11.510;2023-08-30T01:20:10;95332.03;;;11.97;100.00
7662;BME280;30314;48.184;11.510;2023-08-30T01:22:47;95334.53;;;12.02;100.00
7662;BME280;30314;48.184;11.510;2023-08-30T01:27:54;95332.16;;;11.92;100.00
7662;BME280;30314;48.184;11.510;2023-08-30T01:30:24;95327.16;;;11.90;100.00
7662;BME280;30314;48.184;11.510;2023-08-30T01:32:53;95320.50;;;11.93;100.00
7662;BME280;30314;48.184;11.510;2023-08-30T01:35:23;95322.69;;;12.00;100.00
7662;BME280;30314;48.184;11.510;2023-08-30T01:37:51;95327.69;;;12.01;100.00
7662;BME280;30314;48.184;11.510;2023-08-30T01:40:18;95328.31;;;11.98;100.00
7662;BME280;30314;48.184;11.510;2023-08-30T01:42:47;95322.22;;;11.97;100.00
7662;BME280;30314;48.184;11.510;2023-08-30T01:45:15;95322.69;;;11.91;100.00
7662;BME280;30314;48.184;11.510;2023-08-30T01:47:43;95327.34;;;11.94;100.00
7662;BME280;30314;48.184;11.510;2023-08-30T01:50:11;95320.19;;;11.86;100.00
7662;BME280;30314;48.184;11.510;2023-08-30T01:52:38;95324.22;;;11.92;100.00
7662;BME280;30314;48.184;11.510;2023-08-30T01:55:07;95331.22;;;11.88;100.00
7662;BME280;30314;48.184;11.510;2023-08-30T01:57:35;95321.25;;;11.84;100.00
7662;BME280;30314;48.184;11.510;2023-08-30T02:00:02;95322.69;;;11.91;100.00
7662;BME280;30314;48.184;11.510;2023-08-30T02:02:41;95326.41;;;11.90;100.00
7662;BME280;30314;48.184;11.510;2023-08-30T02:05:08;95320.78;;;11.82;100.00
7662;BME280;30314;48.184;11.510;2023-08-30T02:10:16;95316.28;;;11.83;100.00
7662;BME280;30314;48.184;11.510;2023-08-30T02:12:47;95315.47;;;11.82;100.00
7662;BME280;30314;48.184;11.510;2023-08-30T02:15:16;95322.31;;;11.83;100.00
7662;BME280;30314;48.184;11.510;2023-08-30T02:17:44;95319.69;;;11.83;100.00
7662;BME280;30314;48.184;11.510;2023-08-30T02:20:11;95327.75;;;11.78;100.00
7662;BME280;30314;48.184;11.510;2023-08-30T02:22:38;95323.88;;;11.84;100.00
7662;BME280;30314;48.184;11.510;2023-08-30T02:25:05;95325.13;;;11.78;100.00
7662;BME280;30314;48.184;11.510;2023-08-30T02:27:33;95316.41;;;11.78;100.00
7662;BME280;30314;48.184;11.510;2023-08-30T02:30:01;95328.41;;;11.84;100.00
7662;BME280;30314;48.184;11.510;2023-08-30T02:32:29;95320.31;;;11.80;100.00
7662;BME280;30314;48.184;11.510;2023-08-30T02:34:56;95324.97;;;11.83;100.00
7662;BME280;30314;48.184;11.510;2023-08-30T02:37:23;95316.88;;;11.80;100.00
7662;BME280;30314;48.184;11.510;2023-08-30T02:39:50;95324.69;;;11.85;100.00
7662;BME280;30314;48.184;11.510;2023-08-30T02:42:17;95322.19;;;11.80;100.00
7662;BME280;30314;48.184;11.510;2023-08-30T02:44:45;95324.81;;;11.80;100.00
7662;BME280;30314;48.184;11.510;2023-08-30T02:47:11;95318.75;;;11.79;100.00
7662;BME280;30314;48.184;11.510;2023-08-30T02:49:38;95321.38;;;11.79;100.00
7662;BME280;30314;48.184;11.510;2023-08-30T02:52:06;95317.81;;;11.75;100.00
7662;BME280;30314;48.184;11.510;2023-08-30T02:54:33;95320.13;;;11.77;100.00
7662;BME280;30314;48.184;11.510;2023-08-30T02:57:00;95320.31;;;11.80;100.00
7662;BME280;30314;48.184;11.510;2023-08-30T02:59:27;95326.22;;;11.77;100.00
7662;BME280;30314;48.184;11.510;2023-08-30T03:01:53;95319.97;;;11.73;100.00
7662;BME280;30314;48.184;11.510;2023-08-30T03:04:20;95328.56;;;11.79;100.00
7662;BME280;30314;48.184;11.510;2023-08-30T03:06:46;95325.75;;;11.84;100.00
7662;BME280;30314;48.184;11.510;2023-08-30T03:09:13;95320.66;;;11.88;100.00
7662;BME280;30314;48.184;11.510;2023-08-30T03:11:43;95322.94;;;11.80;100.00
7662;BME280;30314;48.184;11.510;2023-08-30T03:14:09;95322.19;;;11.80;100.00
7662;BME280;30314;48.184;11.510;2023-08-30T03:16:37;95321.53;;;11.74;100.00
7662;BME280;30314;48.184;11.510;2023-08-30T03:19:04;95319.53;;;11.80;100.00
7662;BME280;30314;48.184;11.510;2023-08-30T03:21:31;95323.13;;;11.84;100.00
7662;BME280;30314;48.184;11.510;2023-08-30T03:23:58;95326.06;;;11.82;100.00
7662;BME280;30314;48.184;11.510;2023-08-30T03:26:24;95305.50;;;11.79;100.00
7662;BME280;30314;48.184;11.510;2023-08-30T03:28:53;95312.38;;;11.80;100.00
7662;BME280;30314;48.184;11.510;2023-08-30T03:31:21;95314.53;;;11.78;100.00
7662;BME280;30314;48.184;11.510;2023-08-30T03:33:49;95309.72;;;11.80;100.00
7662;BME280;30314;48.184;11.510;2023-08-30T03:36:17;95300.66;;;11.73;100.00
7662;BME280;30314;48.184;11.510;2023-08-30T03:38:45;95307.84;;;11.72;100.00
7662;BME280;30314;48.184;11.510;2023-08-30T03:41:12;95307.69;;;11.77;100.00
7662;BME280;30314;48.184;11.510;2023-08-30T03:43:39;95307.34;;;11.70;100.00
7662;BME280;30314;48.184;11.510;2023-08-30T03:46:07;95310.50;;;11.72;100.00
7662;BME280;30314;48.184;11.510;2023-08-30T03:48:36;95310.50;;;11.72;100.00
7662;BME280;30314;48.184;11.510;2023-08-30T03:51:03;95312.63;;;11.70;100.00
7662;BME280;30314;48.184;11.510;2023-08-30T03:53:29;95313.72;;;11.69;100.00
7662;BME280;30314;48.184;11.510;2023-08-30T03:55:58;95321.06;;;11.72;100.00
7662;BME280;30314;48.184;11.510;2023-08-30T03:58:25;95319.97;;;11.73;100.00
7662;BME280;30314;48.184;11.510;2023-08-30T04:00:52;95320.75;;;11.74;100.00
7662;BME280;30314;48.184;11.510;2023-08-30T04:03:18;95314.97;;;11.72;100.00
7662;BME280;30314;48.184;11.510;2023-08-30T04:05:45;95312.63;;;11.70;100.00
7662;BME280;30314;48.184;11.510;2023-08-30T04:08:12;95311.06;;;11.69;100.00
7662;BME280;30314;48.184;11.510;2023-08-30T04:10:40;95311.88;;;11.69;100.00
7662;BME280;30314;48.184;11.510;2023-08-30T04:13:07;95314.94;;;11.63;100.00
7662;BME280;30314;48.184;11.510;2023-08-30T04:15:36;95320.41;;;11.66;100.00
7662;BME280;30314;48.184;11.510;2023-08-30T04:18:04;95319.91;;;11.64;100.00
7662;BME280;30314;48.184;11.510;2023-08-30T04:20:32;95324.78;;;11.71;100.00
7662;BME280;30314;48.184;11.510;2023-08-30T04:22:59;95324.00;;;11.70;100.00
7662;BME280;30314;48.184;11.510;2023-08-30T04:25:30;95326.81;;;11.74;100.00
7662;BME280;30314;48.184;11.510;2023-08-30T04:27:57;95321.06;;;11.72;100.00
7662;BME280;30314;48.184;11.510;2023-08-30T04:30:25;95324.00;;;11.70;100.00
7662;BME280;30314;48.184;11.510;2023-08-30T04:32:52;95323.22;;;11.70;100.00
7662;BME280;30314;48.184;11.510;2023-08-30T04:35:18;95319.34;;;11.67;100.00
7662;BME280;30314;48.184;11.510;2023-08-30T04:37:45;95319.81;;;11.69;100.00
7662;BME280;30314;48.184;11.510;2023-08-30T04:40:12;95313.44;;;11.70;100.00
7662;BME280;30314;48.184;11.510;2023-08-30T04:42:39;95324.00;;;11.70;100.00
7662;BME280;30314;48.184;11.510;2023-08-30T04:45:07;95317.63;;;11.72;100.00
7662;BME280;30314;48.184;11.510;2023-08-30T04:47:34;95326.66;;;11.70;100.00
7662;BME280;30314;48.184;11.510;2023-08-30T04:50:02;95316.69;;;11.67;100.00
7662;BME280;30314;48.184;11.510;2023-08-30T04:52:28;95319.47;;;11.71;100.00
7662;BME280;30314;48.184;11.510;2023-08-30T04:54:56;95316.69;;;11.67;100.00
7662;BME280;30314;48.184;11.510;2023-08-30T04:57:25;95318.53;;;11.67;100.00
7662;BME280;30314;48.184;11.510;2023-08-30T04:59:52;95324.78;;;11.71;100.00
7662;BME280;30314;48.184;11.510;2023-08-30T05:02:19;95324.94;;;11.75;100.00
7662;BME280;30314;48.184;11.510;2023-08-30T05:04:54;95327.41;;;11.71;100.00
7662;BME280;30314;48.184;11.510;2023-08-30T05:07:21;95329.00;;;11.72;100.00
7662;BME280;30314;48.184;11.510;2023-08-30T05:09:48;95322.91;;;11.72;100.00
7662;BME280;30314;48.184;11.510;2023-08-30T05:12:14;95322.13;;;11.71;100.00
7662;BME280;30314;48.184;11.510;2023-08-30T05:14:41;95321.84;;;11.73;100.00
7662;BME280;30314;48.184;11.510;2023-08-30T05:17:08;95326.50;;;11.76;100.00
7662;BME280;30314;48.184;11.510;2023-08-30T05:19:34;95328.84;;;11.77;100.00
7662;BME280;30314;48.184;11.510;2023-08-30T05:22:03;95324.31;;;11.78;100.00
7662;BME280;30314;48.184;11.510;2023-08-30T05:24:30;95326.50;;;11.76;100.00
7662;BME280;30314;48.184;11.510;2023-08-30T05:26:57;95328.50;;;11.70;100.00
7662;BME280;30314;48.184;11.510;2023-08-30T05:29:25;95325.75;;;11.75;100.00
7662;BME280;30314;48.184;11.510;2023-08-30T05:31:52;95326.34;;;11.72;100.00
7662;BME280;30314;48.184;11.510;2023-08-30T05:34:37;95331.78;;;11.76;100.00
7662;BME280;30314;48.184;11.510;2023-08-30T05:37:22;95341.00;;;11.78;100.00
7662;BME280;30314;48.184;11.510;2023-08-30T05:39:54;95339.00;;;11.84;100.00
7662;BME280;30314;48.184;11.510;2023-08-30T05:42:21;95331.50;;;11.77;100.00
7662;BME280;30314;48.184;11.510;2023-08-30T05:44:48;95337.25;;;11.79;100.00
7662;BME280;30314;48.184;11.510;2023-08-30T05:47:14;95326.84;;;11.83;100.00
7662;BME280;30314;48.184;11.510;2023-08-30T05:49:43;95329.53;;;11.92;100.00
7662;BME280;30314;48.184;11.510;2023-08-30T05:52:10;95324.88;;;11.97;100.00
7662;BME280;30314;48.184;11.510;2023-08-30T05:54:37;95332.63;;;11.94;100.00
7662;BME280;30314;48.184;11.510;2023-08-30T05:57:04;95327.81;;;11.96;100.00
7662;BME280;30314;48.184;11.510;2023-08-30T05:59:31;95320.50;;;11.93;100.00
7662;BME280;30314;48.184;11.510;2023-08-30T06:01:57;95334.81;;;11.92;100.00
7662;BME280;30314;48.184;11.510;2023-08-30T06:04:24;95339.38;;;12.00;100.00
7662;BME280;30314;48.184;11.510;2023-08-30T06:06:50;95339.50;;;12.04;100.00
7662;BME280;30314;48.184;11.510;2023-08-30T06:09:17;95330.34;;;12.01;100.00
7662;BME280;30314;48.184;11.510;2023-08-30T06:11:44;95343.41;;;12.06;100.00
7662;BME280;30314;48.184;11.510;2023-08-30T06:14:10;95333.16;;;12.05;100.00
7662;BME280;30314;48.184;11.510;2023-08-30T06:16:37;95339.06;;;12.10;100.00
7662;BME280;30314;48.184;11.510;2023-08-30T06:19:04;95341.13;;;12.14;100.00
7662;BME280;30314;48.184;11.510;2023-08-30T06:21:30;95348.72;;;12.06;100.00
7662;BME280;30314;48.184;11.510;2023-08-30T06:23:57;95348.88;;;12.10;100.00
7662;BME280;30314;48.184;11.510;2023-08-30T06:26:24;95343.28;;;12.11;100.00
7662;BME280;30314;48.184;11.510;2023-08-30T06:28:50;95349.53;;;12.16;100.00
7662;BME280;30314;48.184;11.510;2023-08-30T06:31:29;95357.47;;;12.16;100.00
7662;BME280;30314;48.184;11.510;2023-08-30T06:33:58;95348.88;;;12.10;100.00
7662;BME280;30314;48.184;11.510;2023-08-30T06:36:26;95346.88;;;12.16;100.00
7662;BME280;30314;48.184;11.510;2023-08-30T06:38:52;95341.59;;;12.16;100.00
7662;BME280;30314;48.184;11.510;2023-08-30T06:41:19;95339.41;;;12.18;100.00
7662;BME280;30314;48.184;11.510;2023-08-30T06:43:46;95339.69;;;12.16;100.00
7662;BME280;30314;48.184;11.510;2023-08-30T06:46:12;95342.03;;;12.18;100.00
7662;BME280;30314;48.184;11.510;2023-08-30T06:48:39;95346.72;;;12.21;100.00
7662;BME280;30314;48.184;11.510;2023-08-30T06:51:06;95340.34;;;12.22;100.00
7662;BME280;30314;48.184;11.510;2023-08-30T06:53:34;95331.63;;;12.21;100.00
7662;BME280;30314;48.184;11.510;2023-08-30T06:56:01;95344.41;;;12.19;100.00
7662;BME280;30314;48.184;11.510;2023-08-30T06:58:28;95344.41;;;12.19;100.00
7662;BME280;30314;48.184;11.510;2023-08-30T07:00:57;95343.31;;;12.20;100.00
7662;BME280;30314;48.184;11.510;2023-08-30T07:03:24;95342.78;;;12.09;100.00
7662;BME280;30314;48.184;11.510;2023-08-30T07:05:51;95347.03;;;12.19;100.00
7662;BME280;30314;48.184;11.510;2023-08-30T07:08:18;95346.72;;;12.21;100.00
7662;BME280;30314;48.184;11.510;2023-08-30T07:10:45;95340.66;;;12.20;100.00
7662;BME280;30314;48.184;11.510;2023-08-30T07:13:12;95339.88;;;12.20;100.00
7662;BME280;30314;48.184;11.510;2023-08-30T07:15:39;95341.91;;;12.23;100.00
7662;BME280;30314;48.184;11.510;2023-08-30T07:18:08;95346.88;;;12.24;100.00
7662;BME280;30314;48.184;11.510;2023-08-30T07:20:38;95341.28;;;12.26;100.00
7662;BME280;30314;48.184;11.510;2023-08-30T07:23:05;95334.91;;;12.27;100.00
7662;BME280;30314;48.184;11.510;2023-08-30T07:25:35;95341.47;;;12.38;100.00
7662;BME280;30314;48.184;11.510;2023-08-30T07:28:04;95344.41;;;12.37;100.00
7662;BME280;30314;48.184;11.510;2023-08-30T07:30:31;95338.81;;;12.38;100.00
7662;BME280;30314;48.184;11.510;2023-08-30T07:32:57;95346.78;;;12.38;100.00
7662;BME280;30314;48.184;11.510;2023-08-30T07:35:24;95334.28;;;12.39;100.00
7662;BME280;30314;48.184;11.510;2023-08-30T07:37:50;95341.16;;;12.40;100.00
7662;BME280;30314;48.184;11.510;2023-08-30T07:40:17;95340.22;;;12.45;100.00
7662;BME280;30314;48.184;11.510;2023-08-30T07:42:44;95336.94;;;12.48;100.00
7662;BME280;30314;48.184;11.510;2023-08-30T07:45:10;95343.50;;;12.50;100.00
7662;BME280;30314;48.184;11.510;2023-08-30T07:47:37;95346.94;;;12.60;100.00
7662;BME280;30314;48.184;11.510;2023-08-30T07:50:05;95347.72;;;12.60;100.00
7662;BME280;30314;48.184;11.510;2023-08-30T07:52:32;95347.72;;;12.60;100.00
7662;BME280;30314;48.184;11.510;2023-08-30T07:55:11;95361.28;;;12.67;100.00
7662;BME280;30314;48.184;11.510;2023-08-30T07:57:38;95351.16;;;12.69;100.00
7662;BME280;30314;48.184;11.510;2023-08-30T08:00:06;95354.09;;;12.68;100.00
7662;BME280;30314;48.184;11.510;2023-08-30T08:02:37;95359.75;;;12.75;100.00
7662;BME280;30314;48.184;11.510;2023-08-30T08:05:04;95356.63;;;12.64;100.00
7662;BME280;30314;48.184;11.510;2023-08-30T08:07:31;95360.81;;;12.65;100.00
7662;BME280;30314;48.184;11.510;2023-08-30T08:09:57;95364.91;;;12.72;100.00
7662;BME280;30314;48.184;11.510;2023-08-30T08:12:26;95360.38;;;12.72;100.00
7662;BME280;30314;48.184;11.510;2023-08-30T08:14:53;95356.44;;;12.61;100.00
7662;BME280;30314;48.184;11.510;2023-08-30T08:17:20;95362.69;;;12.65;100.00
7662;BME280;30314;48.184;11.510;2023-08-30T08:19:46;95360.97;;;12.69;100.00
7662;BME280;30314;48.184;11.510;2023-08-30T08:22:13;95361.00;;;12.78;100.00
7662;BME280;30314;48.184;11.510;2023-08-30T08:24:40;95349.47;;;12.82;100.00
7662;BME280;30314;48.184;11.510;2023-08-30T08:27:06;95358.81;;;12.97;100.00
7662;BME280;30314;48.184;11.510;2023-08-30T08:29:33;95349.00;;;12.98;100.00
7662;BME280;30314;48.184;11.510;2023-08-30T08:32:00;95350.09;;;13.06;100.00
7662;BME280;30314;48.184;11.510;2023-08-30T08:34:26;95366.28;;;13.22;100.00
7662;BME280;30314;48.184;11.510;2023-08-30T08:36:53;95347.09;;;13.34;100.00
7662;BME280;30314;48.184;11.510;2023-08-30T08:39:20;95359.38;;;13.47;100.00
7662;BME280;30314;48.184;11.510;2023-08-30T08:41:46;95353.00;;;13.39;100.00
7662;BME280;30314;48.184;11.510;2023-08-30T08:44:13;95351.75;;;13.37;100.00
7662;BME280;30314;48.184;11.510;2023-08-30T08:46:41;95362.03;;;13.47;100.00
7662;BME280;30314;48.184;11.510;2023-08-30T08:49:15;95355.44;;;13.53;100.00
7662;BME280;30314;48.184;11.510;2023-08-30T08:51:44;95362.59;;;13.62;100.00
7662;BME280;30314;48.184;11.510;2023-08-30T08:54:12;95348.25;;;13.63;100.00
7662;BME280;30314;48.184;11.510;2023-08-30T08:56:40;95354.66;;;13.62;100.00
7662;BME280;30314;48.184;11.510;2023-08-30T08:59:07;95352.44;;;13.64;100.00
7662;BME280;30314;48.184;11.510;2023-08-30T09:01:36;95349.28;;;13.79;100.00
7662;BME280;30314;48.184;11.510;2023-08-30T09:04:12;95331.53;;;13.71;100.00
7662;BME280;30314;48.184;11.510;2023-08-30T09:06:39;95359.09;;;13.88;100.00
7662;BME280;30314;48.184;11.510;2023-08-30T09:09:10;95347.81;;;13.91;100.00
7662;BME280;30314;48.184;11.510;2023-08-30T09:11:37;95349.22;;;13.97;100.00
7662;BME280;30314;48.184;11.510;2023-08-30T09:14:08;95333.28;;;13.97;100.00
7662;BME280;30314;48.184;11.510;2023-08-30T09:16:36;95338.66;;;14.09;100.00
7662;BME280;30314;48.184;11.510;2023-08-30T09:19:04;95335.22;;;14.18;100.00
7662;BME280;30314;48.184;11.510;2023-08-30T09:21:36;95330.25;;;14.07;100.00
7662;BME280;30314;48.184;11.510;2023-08-30T09:24:05;95338.34;;;14.11;100.00
7662;BME280;30314;48.184;11.510;2023-08-30T09:26:34;95325.59;;;14.04;100.00
7662;BME280;30314;48.184;11.510;2023-08-30T09:29:07;95323.53;;;14.10;100.00
7662;BME280;30314;48.184;11.510;2023-08-30T09:31:35;95333.63;;;14.26;100.00
7662;BME280;30314;48.184;11.510;2023-08-30T09:34:04;95332.78;;;14.34;100.00
7662;BME280;30314;48.184;11.510;2023-08-30T09:36:37;95332.94;;;14.37;100.00
7662;BME280;30314;48.184;11.510;2023-08-30T09:39:08;95339.06;;;14.29;100.00
7662;BME280;30314;48.184;11.510;2023-08-30T09:41:43;95322.13;;;14.13;100.00
7662;BME280;30314;48.184;11.510;2023-08-30T09:44:14;95327.13;;;14.14;100.00
7662;BME280;30314;48.184;11.510;2023-08-30T09:46:45;95331.50;;;14.10;100.00
7662;BME280;30314;48.184;11.510;2023-08-30T09:49:21;95332.66;;;14.00;100.00
7662;BME280;30314;48.184;11.510;2023-08-30T09:51:50;95332.34;;;13.93;100.00
7662;BME280;30314;48.184;11.510;2023-08-30T09:54:23;95327.53;;;13.86;100.00
7662;BME280;30314;48.184;11.510;2023-08-30T09:56:54;95320.72;;;13.76;100.00
7662;BME280;30314;48.184;11.510;2023-08-30T09:59:23;95326.19;;;13.80;100.00
7662;BME280;30314;48.184;11.510;2023-08-30T10:01:51;95305.44;;;13.73;100.00
7662;BME280;30314;48.184;11.510;2023-08-30T10:04:20;95314.59;;;13.85;100.00
7662;BME280;30314;48.184;11.510;2023-08-30T10:06:47;95311.47;;;13.82;100.00
7662;BME280;30314;48.184;11.510;2023-08-30T10:09:15;95307.25;;;13.81;100.00
7662;BME280;30314;48.184;11.510;2023-08-30T10:11:46;95306.50;;;13.81;100.00
7662;BME280;30314;48.184;11.510;2023-08-30T10:14:13;95289.38;;;13.70;100.00
7662;BME280;30314;48.184;11.510;2023-08-30T10:16:42;95307.25;;;13.81;100.00
7662;BME280;30314;48.184;11.510;2023-08-30T10:19:26;95295.25;;;13.84;100.00
7662;BME280;30314;48.184;11.510;2023-08-30T10:22:03;95297.69;;;13.89;100.00
7662;BME280;30314;48.184;11.510;2023-08-30T10:27:34;95294.94;;;14.16;100.00
7662;BME280;30314;48.184;11.510;2023-08-30T10:30:04;95290.25;;;14.13;100.00
7662;BME280;30314;48.184;11.510;2023-08-30T10:32:38;95292.91;;;14.13;100.00
7662;BME280;30314;48.184;11.510;2023-08-30T10:35:05;95296.28;;;14.22;100.00
7662;BME280;30314;48.184;11.510;2023-08-30T10:37:32;95284.47;;;14.19;100.00
7662;BME280;30314;48.184;11.510;2023-08-30T10:40:03;95286.16;;;14.24;100.00
7662;BME280;30314;48.184;11.510;2023-08-30T10:42:30;95285.06;;;14.25;100.00
7662;BME280;30314;48.184;11.510;2023-08-30T10:44:59;95296.81;;;14.36;100.00
7662;BME280;30314;48.184;11.510;2023-08-30T10:47:31;95293.47;;;14.27;100.00
7662;BME280;30314;48.184;11.510;2023-08-30T10:49:59;95296.00;;;14.45;100.00
7662;BME280;30314;48.184;11.510;2023-08-30T10:52:27;95271.13;;;14.49;100.00
7662;BME280;30314;48.184;11.510;2023-08-30T10:55:14;95278.81;;;14.85;100.00
7662;BME280;30314;48.184;11.510;2023-08-30T10:57:43;95280.06;;;15.00;100.00
7662;BME280;30314;48.184;11.510;2023-08-30T11:02:38;95264.47;;;15.11;100.00
7662;BME280;30314;48.184;11.510;2023-08-30T11:05:08;95264.22;;;15.03;100.00
7662;BME280;30314;48.184;11.510;2023-08-30T11:07:35;95285.63;;;15.07;100.00
7662;BME280;30314;48.184;11.510;2023-08-30T11:10:06;95284.38;;;15.04;100.00
7662;BME280;30314;48.184;11.510;2023-08-30T11:12:33;95278.97;;;15.13;100.00
7662;BME280;30314;48.184;11.510;2023-08-30T11:15:00;95277.56;;;15.28;100.00
7662;BME280;30314;48.184;11.510;2023-08-30T11:17:27;95286.78;;;15.31;100.00
7662;BME280;30314;48.184;11.510;2023-08-30T11:19:58;95261.91;;;15.14;100.00
7662;BME280;30314;48.184;11.510;2023-08-30T11:22:31;95271.41;;;15.03;100.00
7662;BME280;30314;48.184;11.510;2023-08-30T11:24:58;95279.16;;;14.96;100.00
7662;BME280;30314;48.184;11.510;2023-08-30T11:27:25;95273.13;;;14.86;100.00
7662;BME280;30314;48.184;11.510;2023-08-30T11:29:51;95270.69;;;14.81;100.00
7662;BME280;30314;48.184;11.510;2023-08-30T11:32:19;95270.81;;;14.85;100.00
7662;BME280;30314;48.184;11.510;2023-08-30T11:34:55;95253.19;;;14.80;100.00
7662;BME280;30314;48.184;11.510;2023-08-30T11:37:23;95255.84;;;14.80;100.00
7662;BME280;30314;48.184;11.510;2023-08-30T11:39:54;95262.72;;;14.81;100.00
7662;BME280;30314;48.184;11.510;2023-08-30T11:42:22;95268.28;;;14.88;100.00
7662;BME280;30314;48.184;11.510;2023-08-30T11:44:49;95269.59;;;14.82;100.00
7662;BME280;30314;48.184;11.510;2023-08-30T11:47:20;95266.63;;;14.84;100.00
7662;BME280;30314;48.184;11.510;2023-08-30T11:49:49;95274.06;;;14.90;100.00
7662;BME280;30314;48.184;11.510;2023-08-30T11:52:20;95258.69;;;15.08;100.00
7662;BME280;30314;48.184;11.510;2023-08-30T11:54:47;95254.88;;;15.31;100.00
7662;BME280;30314;48.184;11.510;2023-08-30T11:57:15;95263.78;;;15.60;100.00
7662;BME280;30314;48.184;11.510;2023-08-30T11:59:42;95270.44;;;15.91;100.00
7662;BME280;30314;48.184;11.510;2023-08-30T12:02:12;95260.00;;;15.98;100.00
7662;BME280;30314;48.184;11.510;2023-08-30T12:04:46;95252.47;;;16.00;100.00
7662;BME280;30314;48.184;11.510;2023-08-30T12:07:24;95264.00;;;15.80;100.00
7662;BME280;30314;48.184;11.510;2023-08-30T12:09:51;95261.13;;;15.72;100.00
7662;BME280;30314;48.184;11.510;2023-08-30T12:12:18;95249.50;;;15.52;100.00
7662;BME280;30314;48.184;11.510;2023-08-30T12:14:45;95254.13;;;15.55;100.00
7662;BME280;30314;48.184;11.510;2023-08-30T12:17:20;95249.69;;;15.47;100.00
7662;BME280;30314;48.184;11.510;2023-08-30T12:19:57;95242.69;;;15.42;100.00
7662;BME280;30314;48.184;11.510;2023-08-30T12:22:38;95244.47;;;15.50;100.00
7662;BME280;30314;48.184;11.510;2023-08-30T12:25:16;95241.16;;;15.66;100.00
7662;BME280;30314;48.184;11.510;2023-08-30T12:27:43;95238.06;;;15.64;100.00
7662;BME280;30314;48.184;11.510;2023-08-30T12:30:10;95238.28;;;15.59;100.00
7662;BME280;30314;48.184;11.510;2023-08-30T12:32:37;95231.31;;;15.54;100.00
7662;BME280;30314;48.184;11.510;2023-08-30T12:35:04;95215.34;;;15.42;100.00
7662;BME280;30314;48.184;11.510;2023-08-30T12:37:31;95242.94;;;15.62;100.00
7662;BME280;30314;48.184;11.510;2023-08-30T12:39:57;95235.63;;;15.59;100.00
7662;BME280;30314;48.184;11.510;2023-08-30T12:42:24;95228.09;;;15.61;100.00
7662;BME280;30314;48.184;11.510;2023-08-30T12:44:51;95228.28;;;15.56;100.00
7662;BME280;30314;48.184;11.510;2023-08-30T12:47:17;95234.94;;;15.49;100.00
7662;BME280;30314;48.184;11.510;2023-08-30T12:49:44;95237.38;;;15.67;100.00
7662;BME280;30314;48.184;11.510;2023-08-30T12:52:10;95229.63;;;15.62;100.00
7662;BME280;30314;48.184;11.510;2023-08-30T12:54:37;95225.41;;;15.73;100.00
7662;BME280;30314;48.184;11.510;2023-08-30T12:57:04;95240.94;;;15.96;100.00
7662;BME280;30314;48.184;11.510;2023-08-30T12:59:30;95232.16;;;15.83;100.00
7662;BME280;30314;48.184;11.510;2023-08-30T13:01:57;95224.88;;;15.68;100.00
7662;BME280;30314;48.184;11.510;2023-08-30T13:04:24;95226.09;;;15.70;100.00
7662;BME280;30314;48.184;11.510;2023-08-30T13:06:50;95226.84;;;15.58;100.00